Terminal Aerodrome Forecast
Issued by NWS

Home | Current Version | Previous Version | Text Only | Print | Product List | Glossary On
Versions: 1 2 3 4 5 6 7 8 9 10 11 12 13 14 15
267
FTUS46 KMFR 282340
TAFRBG
TAF
KRBG 282340Z 2900/2924 36006KT P6SM BKN040
     FM290800 00000KT P6SM OVC015
     FM291600 00000KT P6SM BKN025 BKN120
     FM291900 33005KT P6SM VCSH BKN035 OVC070
     FM292100 34010G16KT P6SM -SHRA BKN035 OVC060=

USA.gov is the U.S. government's official web portal to all federal, state and local government web resources and services.